createdAt,value
2018-01-20T00:00:03.442Z,0
2018-01-20T00:01:03.659Z,0
2018-01-20T00:02:03.393Z,0
2018-01-20T00:03:02.859Z,0
2018-01-20T00:04:03.569Z,0
2018-01-20T00:05:03.544Z,0
2018-01-20T00:06:03.272Z,0
2018-01-20T00:07:03.240Z,0
2018-01-20T00:08:03.450Z,0
2018-01-20T00:09:03.423Z,0
2018-01-20T00:10:03.151Z,0
2018-01-20T00:11:03.155Z,0
2018-01-20T00:12:02.602Z,0
2018-01-20T00:13:03.062Z,0
2018-01-20T00:14:02.780Z,0
2018-01-20T00:15:03.245Z,0
2018-01-20T00:16:03.221Z,0
2018-01-20T00:17:02.721Z,0
2018-01-20T00:18:03.154Z,0
2018-01-20T00:19:03.132Z,0
2018-01-20T00:20:03.098Z,0
2018-01-20T00:21:02.818Z,0
2018-01-20T00:22:02.550Z,0
2018-01-20T00:23:02.764Z,0
2018-01-20T00:24:02.980Z,0
2018-01-20T00:25:02.958Z,0
2018-01-20T00:26:02.680Z,0
2018-01-20T00:27:02.891Z,0
2018-01-20T00:28:02.380Z,0
2018-01-20T00:29:02.836Z,0
2018-01-20T00:30:02.558Z,0
2018-01-20T00:31:02.287Z,0
2018-01-20T00:32:02.752Z,0
2018-01-20T00:33:02.475Z,0
2018-01-20T00:34:02.446Z,0
2018-01-20T00:35:02.660Z,0
2018-01-20T00:36:02.688Z,0
2018-01-20T00:37:02.603Z,0
2018-01-20T00:38:02.076Z,0
2018-01-20T00:39:02.347Z,0
2018-01-20T00:40:02.520Z,0
2018-01-20T00:41:02.480Z,0
2018-01-20T00:42:02.222Z,0
2018-01-20T00:43:01.930Z,0
2018-01-20T00:44:01.903Z,0
2018-01-20T00:45:02.118Z,0
2018-01-20T00:46:02.096Z,0
2018-01-20T00:47:02.333Z,0
2018-01-20T00:48:01.789Z,0
2018-01-20T00:49:02.002Z,0
2018-01-20T00:50:01.981Z,0
2018-01-20T00:51:02.194Z,0
2018-01-20T00:52:01.918Z,0
2018-01-20T00:53:02.133Z,0
2018-01-20T00:54:02.107Z,0
2018-01-20T00:55:02.077Z,0
2018-01-20T00:56:01.806Z,0
2018-01-20T00:57:02.018Z,0
2018-01-20T00:58:02.028Z,0
2018-01-20T00:59:01.712Z,0
2018-01-20T01:00:01.686Z,0
2018-01-20T01:01:01.910Z,0
2018-01-20T01:02:01.873Z,0
2018-01-20T01:03:01.600Z,0
2018-01-20T01:04:01.074Z,0
2018-01-20T01:05:01.540Z,0
2018-01-20T01:06:01.759Z,0
2018-01-20T01:07:01.475Z,0
2018-01-20T01:08:00.953Z,0
2018-01-20T01:09:01.174Z,0
2018-01-20T01:10:01.388Z,0
2018-01-20T01:11:01.429Z,0
2018-01-20T01:12:01.084Z,0
2018-01-20T01:13:01.307Z,0
2018-01-20T01:14:01.520Z,0
2018-01-20T01:15:01.491Z,0
2018-01-20T01:16:00.966Z,0
2018-01-20T01:17:01.442Z,0
2018-01-20T01:18:01.403Z,0
2018-01-20T01:19:01.377Z,0
2018-01-20T01:20:01.345Z,0
2018-01-20T01:21:01.356Z,0
2018-01-20T01:22:01.041Z,0
2018-01-20T01:23:01.006Z,0
2018-01-20T01:24:01.239Z,0
2018-01-20T01:25:01.205Z,0
2018-01-20T01:26:00.672Z,0
2018-01-20T01:27:01.135Z,0
2018-01-20T01:28:00.910Z,0
2018-01-20T01:29:00.835Z,0
2018-01-20T01:30:00.806Z,0
2018-01-20T01:31:01.034Z,0
2018-01-20T01:32:00.757Z,0
2018-01-20T01:33:00.725Z,0
2018-01-20T01:34:00.936Z,0
2018-01-20T01:35:00.757Z,0
2018-01-20T01:36:00.621Z,0
2018-01-20T01:37:00.851Z,0
2018-01-20T01:38:00.570Z,0
2018-01-20T01:39:00.290Z,0
2018-01-20T01:40:00.264Z,0
2018-01-20T01:41:00.475Z,0
2018-01-20T01:42:00.201Z,0
2018-01-20T01:43:00.421Z,0
2018-01-20T01:44:00.384Z,0
2018-01-20T01:45:00.603Z,0
2018-01-20T01:46:00.089Z,0
2018-01-20T01:47:00.313Z,0
2018-01-20T01:48:00.268Z,0
2018-01-20T01:49:00.490Z,0
2018-01-20T01:50:00.204Z,0
2018-01-20T01:50:59.937Z,0
2018-01-20T01:52:00.147Z,0
2018-01-20T01:52:59.875Z,0
2018-01-20T01:54:00.090Z,0
2018-01-20T01:54:59.864Z,0
2018-01-20T01:56:00.040Z,0
2018-01-20T01:57:00.013Z,0
2018-01-20T01:58:00.218Z,0
2018-01-20T01:58:59.936Z,0
2018-01-20T02:00:00.157Z,0
2018-01-20T02:00:59.888Z,0
2018-01-20T02:01:59.607Z,0
2018-01-20T02:02:59.580Z,0
2018-01-20T02:03:59.790Z,0
2018-01-20T02:04:59.514Z,0
2018-01-20T02:05:59.729Z,0
2018-01-20T02:06:59.704Z,0
2018-01-20T02:07:59.176Z,0
2018-01-20T02:08:59.642Z,0
2018-01-20T02:09:59.367Z,0
2018-01-20T02:10:59.578Z,0
2018-01-20T02:11:59.552Z,0
2018-01-20T02:12:59.520Z,0
2018-01-20T02:13:59.735Z,0
2018-01-20T02:14:59.217Z,0
2018-01-20T02:15:59.668Z,0
2018-01-20T02:16:59.176Z,0
2018-01-20T02:17:59.371Z,0
2018-01-20T02:18:59.340Z,0
2018-01-20T02:19:59.059Z,0
2018-01-20T02:20:59.631Z,0
2018-01-20T02:21:59.264Z,0
2018-01-20T02:22:59.221Z,0
2018-01-20T02:23:59.192Z,0
2018-01-20T02:24:59.403Z,0
2018-01-20T02:25:59.374Z,0
2018-01-20T02:26:59.108Z,0
2018-01-20T02:27:59.318Z,0
2018-01-20T02:28:59.042Z,0
2018-01-20T02:29:59.012Z,0
2018-01-20T02:30:59.081Z,0
2018-01-20T02:31:58.951Z,0
2018-01-20T02:32:58.914Z,0
2018-01-20T02:33:58.890Z,0
2018-01-20T02:34:58.612Z,0
2018-01-20T02:35:59.183Z,0
2018-01-20T02:36:59.046Z,0
2018-01-20T02:37:59.021Z,0
2018-01-20T02:38:58.991Z,0
2018-01-20T02:39:58.709Z,0
2018-01-20T02:40:58.927Z,0
2018-01-20T02:41:58.652Z,0
2018-01-20T02:42:58.639Z,0
2018-01-20T02:43:58.344Z,0
2018-01-20T02:44:58.317Z,0
2018-01-20T02:45:58.780Z,0
2018-01-20T02:46:58.498Z,0
2018-01-20T02:47:58.469Z,0
2018-01-20T02:48:58.698Z,0
2018-01-20T02:49:58.661Z,0
2018-01-20T02:50:58.374Z,0
2018-01-20T02:51:58.099Z,0
2018-01-20T02:52:58.322Z,0
2018-01-20T02:53:58.044Z,0
2018-01-20T02:54:58.501Z,0
2018-01-20T02:55:58.470Z,0
2018-01-20T02:56:58.238Z,0
2018-01-20T02:57:57.916Z,0
2018-01-20T02:58:58.378Z,0
2018-01-20T02:59:58.103Z,0
2018-01-20T03:00:58.074Z,0
2018-01-20T03:01:58.290Z,0
2018-01-20T03:02:57.774Z,0
2018-01-20T03:03:57.975Z,0
2018-01-20T03:04:57.949Z,0
2018-01-20T03:05:58.173Z,0
2018-01-20T03:06:57.896Z,0
2018-01-20T03:07:58.109Z,0
2018-01-20T03:08:57.840Z,0
2018-01-20T03:09:58.045Z,0
2018-01-20T03:10:57.286Z,0
2018-01-20T03:11:57.739Z,0
2018-01-20T03:12:57.706Z,0
2018-01-20T03:13:57.678Z,0
2018-01-20T03:14:57.651Z,0
2018-01-20T03:15:57.377Z,0
2018-01-20T03:16:57.595Z,0
2018-01-20T03:17:57.801Z,0
2018-01-20T03:18:57.770Z,0
2018-01-20T03:19:57.257Z,0
2018-01-20T03:20:57.470Z,0
2018-01-20T03:21:56.947Z,0
2018-01-20T03:22:56.916Z,0
2018-01-20T03:23:57.379Z,0
2018-01-20T03:24:57.356Z,0
2018-01-20T03:25:57.080Z,0
2018-01-20T03:26:57.296Z,0
2018-01-20T03:27:57.512Z,0
2018-01-20T03:28:57.233Z,0
2018-01-20T03:29:57.200Z,0
2018-01-20T03:30:57.437Z,0
2018-01-20T03:31:57.244Z,0
2018-01-20T03:32:57.117Z,0
2018-01-20T03:33:57.078Z,0
2018-01-20T03:34:57.062Z,0
2018-01-20T03:35:56.778Z,0
2018-01-20T03:36:56.991Z,0
2018-01-20T03:37:56.966Z,0
2018-01-20T03:38:56.941Z,0
2018-01-20T03:39:57.152Z,0
2018-01-20T03:40:56.379Z,0
2018-01-20T03:41:56.856Z,0
2018-01-20T03:42:56.813Z,0
2018-01-20T03:43:56.544Z,0
2018-01-20T03:44:56.997Z,0
2018-01-20T03:45:56.733Z,0
2018-01-20T03:46:56.447Z,0
2018-01-20T03:47:56.420Z,0
2018-01-20T03:48:56.647Z,0
2018-01-20T03:49:56.851Z,0
2018-01-20T03:50:56.822Z,0
2018-01-20T03:51:56.543Z,0
2018-01-20T03:52:56.268Z,0
2018-01-20T03:53:56.491Z,0
2018-01-20T03:54:56.705Z,0
2018-01-20T03:55:55.932Z,0
2018-01-20T03:56:56.395Z,0
2018-01-20T03:57:56.621Z,0
2018-01-20T03:58:56.342Z,0
2018-01-20T03:59:56.309Z,0
2018-01-20T04:00:56.275Z,0
2018-01-20T04:01:55.755Z,0
2018-01-20T04:02:56.462Z,0
2018-01-20T04:03:55.948Z,0
2018-01-20T04:04:56.164Z,0
2018-01-20T04:05:55.879Z,0
2018-01-20T04:06:55.849Z,0
2018-01-20T04:07:56.316Z,0
2018-01-20T04:08:55.796Z,0
2018-01-20T04:09:56.009Z,0
2018-01-20T04:10:55.738Z,0
2018-01-20T04:11:56.200Z,0
2018-01-20T04:12:56.165Z,0
2018-01-20T04:13:55.645Z,0
2018-01-20T04:14:55.621Z,0
2018-01-20T04:15:55.832Z,0
2018-01-20T04:16:55.795Z,0
2018-01-20T04:17:55.871Z,0
2018-01-20T04:18:55.749Z,0
2018-01-20T04:19:55.719Z,0
2018-01-20T04:20:54.944Z,0
2018-01-20T04:21:55.410Z,0
2018-01-20T04:22:55.628Z,0
2018-01-20T04:23:55.843Z,0
2018-01-20T04:24:55.559Z,0
2018-01-20T04:25:55.774Z,0
2018-01-20T04:26:55.257Z,0
2018-01-20T04:27:55.484Z,0
2018-01-20T04:28:55.455Z,0
2018-01-20T04:29:55.424Z,0
2018-01-20T04:30:55.629Z,0
2018-01-20T04:31:55.355Z,0
2018-01-20T04:32:55.324Z,0
2018-01-20T04:33:55.290Z,0
2018-01-20T04:34:55.276Z,0
2018-01-20T04:35:55.258Z,0
2018-01-20T04:36:55.208Z,0
2018-01-20T04:37:54.928Z,0
2018-01-20T04:38:55.142Z,0
2018-01-20T04:39:54.864Z,0
2018-01-20T04:40:55.328Z,0
2018-01-20T04:41:55.060Z,0
2018-01-20T04:42:55.023Z,0
2018-01-20T04:43:54.995Z,0
2018-01-20T04:44:54.472Z,0
2018-01-20T04:45:54.689Z,0
2018-01-20T04:46:54.907Z,0
2018-01-20T04:47:54.637Z,0
2018-01-20T04:48:55.102Z,0
2018-01-20T04:49:54.577Z,0
2018-01-20T04:50:54.790Z,0
2018-01-20T04:51:54.812Z,0
2018-01-20T04:52:54.981Z,0
2018-01-20T04:53:54.451Z,0
2018-01-20T04:54:54.666Z,0
2018-01-20T04:55:54.882Z,0
2018-01-20T04:56:54.603Z,0
2018-01-20T04:57:54.822Z,0
2018-01-20T04:58:54.304Z,0
2018-01-20T04:59:54.773Z,0
2018-01-20T05:00:54.248Z,0
2018-01-20T05:01:54.458Z,0
2018-01-20T05:02:54.186Z,0
2018-01-20T05:03:54.400Z,0
2018-01-20T05:04:54.371Z,0
2018-01-20T05:05:54.604Z,0
2018-01-20T05:06:54.068Z,0
2018-01-20T05:07:54.280Z,0
2018-01-20T05:08:54.250Z,0
2018-01-20T05:09:53.981Z,0
2018-01-20T05:10:54.442Z,0
2018-01-20T05:11:54.162Z,0
2018-01-20T05:12:54.382Z,0
2018-01-20T05:13:54.123Z,0
2018-01-20T05:14:54.078Z,0
2018-01-20T05:15:53.806Z,0
2018-01-20T05:16:54.022Z,0
2018-01-20T05:17:53.747Z,0
2018-01-20T05:18:53.952Z,0
2018-01-20T05:19:53.932Z,0
2018-01-20T05:20:53.892Z,0
2018-01-20T05:21:53.878Z,0
2018-01-20T05:22:53.352Z,0
2018-01-20T05:23:53.808Z,0
2018-01-20T05:24:53.538Z,0
2018-01-20T05:25:53.998Z,0
2018-01-20T05:26:53.234Z,0
2018-01-20T05:27:53.692Z,0
2018-01-20T05:28:53.915Z,0
2018-01-20T05:29:53.627Z,0
2018-01-20T05:30:53.848Z,0
2018-01-20T05:31:53.826Z,0
2018-01-20T05:32:53.543Z,0
2018-01-20T05:33:53.766Z,0
2018-01-20T05:34:53.726Z,0
2018-01-20T05:35:53.454Z,0
2018-01-20T05:36:53.715Z,0
2018-01-20T05:37:53.153Z,0
2018-01-20T05:38:53.366Z,0
2018-01-20T05:39:53.098Z,0
2018-01-20T05:40:53.553Z,0
2018-01-20T05:41:53.533Z,0
2018-01-20T05:42:53.493Z,0
2018-01-20T05:43:53.221Z,0
2018-01-20T05:44:53.196Z,0
2018-01-20T05:45:53.406Z,0
2018-01-20T05:46:53.371Z,0
2018-01-20T05:47:53.359Z,0
2018-01-20T05:48:53.421Z,0
2018-01-20T05:49:53.296Z,0
2018-01-20T05:50:53.019Z,0
2018-01-20T05:51:52.740Z,0
2018-01-20T05:52:52.714Z,0
2018-01-20T05:53:52.678Z,0
2018-01-20T05:54:52.897Z,0
2018-01-20T05:55:52.864Z,0
2018-01-20T05:56:52.833Z,0
2018-01-20T05:57:52.801Z,0
2018-01-20T05:58:52.784Z,0
2018-01-20T05:59:52.990Z,0
2018-01-20T06:00:52.714Z,0
2018-01-20T06:01:52.439Z,0
2018-01-20T06:02:52.656Z,0
2018-01-20T06:03:52.378Z,0
2018-01-20T06:04:52.600Z,0
2018-01-20T06:05:52.322Z,0
2018-01-20T06:06:52.783Z,0
2018-01-20T06:07:52.757Z,0
2018-01-20T06:08:52.480Z,0
2018-01-20T06:09:52.699Z,0
2018-01-20T06:10:52.713Z,0
2018-01-20T06:11:52.388Z,0
2018-01-20T06:12:52.365Z,0
2018-01-20T06:13:52.583Z,0
2018-01-20T06:14:52.552Z,0
2018-01-20T06:15:52.035Z,0
2018-01-20T06:16:52.245Z,0
2018-01-20T06:17:51.726Z,0
2018-01-20T06:18:52.652Z,0
2018-01-20T06:19:52.406Z,0
2018-01-20T06:20:52.127Z,0
2018-01-20T06:21:52.344Z,0
2018-01-20T06:22:52.315Z,0
2018-01-20T06:23:52.277Z,0
2018-01-20T06:24:52.252Z,0
2018-01-20T06:25:52.237Z,0
2018-01-20T06:26:52.205Z,0
2018-01-20T06:27:51.927Z,0
2018-01-20T06:28:52.137Z,0
2018-01-20T06:29:52.217Z,0
2018-01-20T06:30:51.835Z,0
2018-01-20T06:31:52.057Z,0
2018-01-20T06:32:51.780Z,0
2018-01-20T06:33:52.004Z,0
2018-01-20T06:34:52.113Z,0
2018-01-20T06:35:51.936Z,0
2018-01-20T06:36:51.901Z,0
2018-01-20T06:37:51.883Z,0
2018-01-20T06:38:51.848Z,0
2018-01-20T06:39:51.326Z,0
2018-01-20T06:40:51.787Z,0
2018-01-20T06:41:51.512Z,0
2018-01-20T06:42:51.725Z,0
2018-01-20T06:43:51.698Z,0
2018-01-20T06:44:51.678Z,0
2018-01-20T06:45:51.149Z,0
2018-01-20T06:46:51.367Z,0
2018-01-20T06:47:51.089Z,0
2018-01-20T06:48:51.552Z,0
2018-01-20T06:49:51.624Z,0
2018-01-20T06:50:51.006Z,0
2018-01-20T06:51:51.553Z,0
2018-01-20T06:52:51.238Z,0
2018-01-20T06:53:51.158Z,0
2018-01-20T06:54:51.133Z,0
2018-01-20T06:55:51.105Z,0
2018-01-20T06:56:51.071Z,0
2018-01-20T06:57:51.052Z,0
2018-01-20T06:58:51.012Z,0
2018-01-20T06:59:50.982Z,0
2018-01-20T07:00:50.705Z,0
2018-01-20T07:01:51.177Z,0
2018-01-20T07:02:50.903Z,0
2018-01-20T07:03:51.110Z,0
2018-01-20T07:04:51.189Z,0
2018-01-20T07:05:51.053Z,0
2018-01-20T07:06:50.534Z,0
2018-01-20T07:07:50.751Z,0
2018-01-20T07:08:50.960Z,0
2018-01-20T07:09:50.953Z,0
2018-01-20T07:10:50.662Z,0
2018-01-20T07:11:50.932Z,0
2018-01-20T07:12:50.849Z,5
2018-01-20T07:13:50.823Z,5
2018-01-20T07:14:50.553Z,5
2018-01-20T07:15:50.507Z,5
2018-01-20T07:16:50.740Z,5
2018-01-20T07:17:50.699Z,5
2018-01-20T07:18:50.664Z,10
2018-01-20T07:19:50.396Z,10
2018-01-20T07:20:50.367Z,10
2018-01-20T07:21:50.587Z,10
2018-01-20T07:22:50.302Z,10
2018-01-20T07:23:50.531Z,10
2018-01-20T07:24:50.004Z,10
2018-01-20T07:25:50.211Z,15
2018-01-20T07:26:50.424Z,15
2018-01-20T07:27:50.215Z,15
2018-01-20T07:28:50.126Z,20
2018-01-20T07:29:50.431Z,20
2018-01-20T07:30:50.063Z,20
2018-01-20T07:31:50.284Z,20
2018-01-20T07:32:50.256Z,20
2018-01-20T07:33:50.222Z,20
2018-01-20T07:34:49.944Z,25
2018-01-20T07:35:50.162Z,25
2018-01-20T07:36:50.129Z,25
2018-01-20T07:37:49.861Z,30
2018-01-20T07:38:49.586Z,35
2018-01-20T07:39:50.053Z,40
2018-01-20T07:40:50.024Z,45
2018-01-20T07:41:49.496Z,50
2018-01-20T07:42:49.470Z,50
2018-01-20T07:43:49.928Z,55
2018-01-20T07:44:49.897Z,55
2018-01-20T07:45:49.616Z,60
2018-01-20T07:46:49.591Z,60
2018-01-20T07:47:49.807Z,65
2018-01-20T07:48:49.528Z,65
2018-01-20T07:49:49.260Z,65
2018-01-20T07:50:49.471Z,65
2018-01-20T07:51:49.444Z,60
2018-01-20T07:52:49.419Z,65
2018-01-20T07:53:49.385Z,65
2018-01-20T07:54:49.607Z,75
2018-01-20T07:55:49.327Z,75
2018-01-20T07:56:49.301Z,80
2018-01-20T07:57:49.272Z,85
2018-01-20T07:58:49.493Z,85
2018-01-20T07:59:49.472Z,85
2018-01-20T08:00:49.491Z,85
2018-01-20T08:01:49.397Z,85
2018-01-20T08:02:49.124Z,85
2018-01-20T08:03:49.090Z,85
2018-01-20T08:04:49.309Z,90
2018-01-20T08:05:49.286Z,90
2018-01-20T08:06:49.249Z,100
2018-01-20T08:07:49.219Z,100
2018-01-20T08:08:49.188Z,100
2018-01-20T08:09:49.162Z,110
2018-01-20T08:10:49.180Z,115
2018-01-20T08:11:49.116Z,125
2018-01-20T08:12:49.081Z,140
2018-01-20T08:13:48.800Z,145
2018-01-20T08:14:49.017Z,145
2018-01-20T08:15:48.999Z,150
2018-01-20T08:16:48.472Z,155
2018-01-20T08:17:48.933Z,160
2018-01-20T08:18:48.896Z,165
2018-01-20T08:19:48.631Z,165
2018-01-20T08:20:48.846Z,165
2018-01-20T08:21:48.578Z,170
2018-01-20T08:22:48.790Z,165
2018-01-20T08:23:48.758Z,175
2018-01-20T08:24:48.482Z,175
2018-01-20T08:25:48.709Z,180
2018-01-20T08:26:48.433Z,175
2018-01-20T08:27:48.646Z,170
2018-01-20T08:28:48.623Z,165
2018-01-20T08:29:48.589Z,165
2018-01-20T08:30:48.563Z,170
2018-01-20T08:31:48.297Z,170
2018-01-20T08:32:48.498Z,170
2018-01-20T08:33:48.231Z,170
2018-01-20T08:34:48.445Z,170
2018-01-20T08:35:48.167Z,170
2018-01-20T08:36:48.147Z,175
2018-01-20T08:37:48.364Z,180
2018-01-20T08:38:48.333Z,195
2018-01-20T08:39:48.304Z,205
2018-01-20T08:40:48.277Z,210
2018-01-20T08:41:48.002Z,215
2018-01-20T08:42:47.977Z,220
2018-01-20T08:43:48.188Z,220
2018-01-20T08:44:47.926Z,220
2018-01-20T08:45:48.133Z,215
2018-01-20T08:46:47.863Z,210
2018-01-20T08:47:48.079Z,210
2018-01-20T08:48:48.054Z,205
2018-01-20T08:49:47.779Z,200
2018-01-20T08:50:47.743Z,200
2018-01-20T08:51:47.719Z,200
2018-01-20T08:52:47.952Z,200
2018-01-20T08:53:47.906Z,195
2018-01-20T08:54:47.878Z,190
2018-01-20T08:55:47.854Z,190
2018-01-20T08:56:47.576Z,195
2018-01-20T08:57:47.798Z,195
2018-01-20T08:58:47.526Z,205
2018-01-20T08:59:47.745Z,205
2018-01-20T09:00:47.223Z,200
2018-01-20T09:01:47.702Z,200
2018-01-20T09:02:47.162Z,200
2018-01-20T09:03:47.381Z,200
2018-01-20T09:04:47.358Z,195
2018-01-20T09:05:47.329Z,200
2018-01-20T09:06:47.301Z,225
2018-01-20T09:07:47.511Z,220
2018-01-20T09:08:47.494Z,225
2018-01-20T09:09:47.221Z,240
2018-01-20T09:10:47.425Z,245
2018-01-20T09:11:47.402Z,260
2018-01-20T09:12:47.376Z,275
2018-01-20T09:13:47.352Z,290
2018-01-20T09:14:47.079Z,305
2018-01-20T09:15:47.052Z,310
2018-01-20T09:16:47.020Z,305
2018-01-20T09:17:47.243Z,295
2018-01-20T09:18:47.210Z,305
2018-01-20T09:19:46.692Z,295
2018-01-20T09:20:46.906Z,295
2018-01-20T09:21:47.119Z,315
2018-01-20T09:22:46.856Z,310
2018-01-20T09:23:46.826Z,300
2018-01-20T09:24:47.046Z,300
2018-01-20T09:25:47.026Z,320
2018-01-20T09:26:46.749Z,325
2018-01-20T09:27:46.471Z,325
2018-01-20T09:28:46.695Z,325
2018-01-20T09:29:46.960Z,325
2018-01-20T09:30:46.874Z,325
2018-01-20T09:31:46.612Z,315
2018-01-20T09:32:46.586Z,310
2018-01-20T09:33:46.801Z,310
2018-01-20T09:34:46.276Z,310
2018-01-20T09:35:46.749Z,305
2018-01-20T09:36:46.725Z,295
2018-01-20T09:37:46.692Z,295
2018-01-20T09:38:46.661Z,310
2018-01-20T09:39:46.635Z,320
2018-01-20T09:40:46.613Z,325
2018-01-20T09:41:46.580Z,325
2018-01-20T09:42:46.639Z,330
2018-01-20T09:43:46.539Z,335
2018-01-20T09:44:46.504Z,350
2018-01-20T09:45:45.741Z,360
2018-01-20T09:46:46.458Z,375
2018-01-20T09:47:46.435Z,380
2018-01-20T09:48:46.424Z,385
2018-01-20T09:49:46.366Z,395
2018-01-20T09:50:46.100Z,400
2018-01-20T09:51:45.826Z,400
2018-01-20T09:52:46.038Z,410
2018-01-20T09:53:46.258Z,415
2018-01-20T09:54:46.226Z,420
2018-01-20T09:55:46.202Z,410
2018-01-20T09:56:45.934Z,400
2018-01-20T09:57:46.194Z,390
2018-01-20T09:58:45.635Z,375
2018-01-20T09:59:45.851Z,370
2018-01-20T10:00:45.827Z,365
2018-01-20T10:01:45.313Z,365
2018-01-20T10:02:46.024Z,365
2018-01-20T10:03:46.005Z,375
2018-01-20T10:04:45.974Z,370
2018-01-20T10:05:45.458Z,370
2018-01-20T10:06:45.426Z,370
2018-01-20T10:07:45.898Z,365
2018-01-20T10:08:45.130Z,365
2018-01-20T10:09:45.839Z,365
2018-01-20T10:10:45.813Z,365
2018-01-20T10:11:45.533Z,370
2018-01-20T10:12:45.758Z,380
2018-01-20T10:13:45.733Z,380
2018-01-20T10:14:45.709Z,380
2018-01-20T10:15:45.443Z,380
2018-01-20T10:16:45.173Z,380
2018-01-20T10:17:45.143Z,375
2018-01-20T10:18:45.603Z,365
2018-01-20T10:19:45.335Z,365
2018-01-20T10:20:45.554Z,390
2018-01-20T10:21:45.532Z,410
2018-01-20T10:22:45.258Z,420
2018-01-20T10:23:45.230Z,430
2018-01-20T10:24:45.456Z,425
2018-01-20T10:25:45.181Z,425
2018-01-20T10:26:45.397Z,420
2018-01-20T10:27:45.125Z,410
2018-01-20T10:28:45.097Z,405
2018-01-20T10:29:45.078Z,400
2018-01-20T10:30:45.298Z,400
2018-01-20T10:31:44.780Z,400
2018-01-20T10:32:44.998Z,405
2018-01-20T10:33:44.478Z,415
2018-01-20T10:34:44.947Z,425
2018-01-20T10:35:46.000Z,435
2018-01-20T10:36:45.141Z,445
2018-01-20T10:37:44.625Z,445
2018-01-20T10:38:44.597Z,445
2018-01-20T10:39:44.819Z,450
2018-01-20T10:40:44.799Z,455
2018-01-20T10:41:44.770Z,460
2018-01-20T10:42:44.997Z,460
2018-01-20T10:43:44.715Z,455
2018-01-20T10:44:44.445Z,450
2018-01-20T10:45:44.420Z,445
2018-01-20T10:46:44.634Z,440
2018-01-20T10:47:44.613Z,440
2018-01-20T10:48:44.588Z,435
2018-01-20T10:49:44.809Z,440
2018-01-20T10:50:44.292Z,440
2018-01-20T10:51:44.757Z,435
2018-01-20T10:52:44.483Z,430
2018-01-20T10:53:44.719Z,425
2018-01-20T10:54:44.440Z,420
2018-01-20T10:55:44.485Z,425
2018-01-20T10:56:44.637Z,430
2018-01-20T10:57:43.873Z,435
2018-01-20T10:58:44.624Z,435
2018-01-20T10:59:44.070Z,435
2018-01-20T11:00:44.289Z,430
2018-01-20T11:01:44.504Z,425
2018-01-20T11:02:44.478Z,420
2018-01-20T11:03:44.451Z,420
2018-01-20T11:04:44.431Z,425
2018-01-20T11:05:44.402Z,425
2018-01-20T11:06:44.136Z,425
2018-01-20T11:07:44.102Z,420
2018-01-20T11:08:44.320Z,415
2018-01-20T11:09:44.305Z,415
2018-01-20T11:10:44.278Z,420
2018-01-20T11:11:44.001Z,425
2018-01-20T11:12:43.972Z,435
2018-01-20T11:13:44.196Z,440
2018-01-20T11:14:43.925Z,445
2018-01-20T11:15:43.898Z,455
2018-01-20T11:16:44.116Z,460
2018-01-20T11:17:43.866Z,465
2018-01-20T11:18:43.820Z,470
2018-01-20T11:19:44.047Z,470
2018-01-20T11:20:44.016Z,470
2018-01-20T11:21:43.993Z,470
2018-01-20T11:22:43.963Z,470
2018-01-20T11:23:43.938Z,470
2018-01-20T11:24:43.913Z,465
2018-01-20T11:25:43.647Z,460
2018-01-20T11:26:43.855Z,445
2018-01-20T11:27:43.593Z,440
2018-01-20T11:28:43.572Z,435
2018-01-20T11:29:43.541Z,435
2018-01-20T11:30:43.862Z,435
2018-01-20T11:31:43.746Z,435
2018-01-20T11:32:43.711Z,440
2018-01-20T11:33:43.688Z,445
2018-01-20T11:34:42.920Z,455
2018-01-20T11:35:43.389Z,460
2018-01-20T11:36:43.611Z,460
2018-01-20T11:37:43.580Z,460
2018-01-20T11:38:43.316Z,465
2018-01-20T11:39:43.298Z,465
2018-01-20T11:40:43.259Z,470
2018-01-20T11:41:43.490Z,480
2018-01-20T11:42:43.215Z,485
2018-01-20T11:43:43.436Z,485
2018-01-20T11:44:42.916Z,485
2018-01-20T11:45:43.140Z,485
2018-01-20T11:46:43.365Z,490
2018-01-20T11:47:43.333Z,490
2018-01-20T11:48:43.309Z,490
2018-01-20T11:49:43.282Z,490
2018-01-20T11:50:43.260Z,490
2018-01-20T11:51:43.356Z,490
2018-01-20T11:52:43.215Z,485
2018-01-20T11:53:43.184Z,485
2018-01-20T11:54:43.186Z,470
2018-01-20T11:55:43.138Z,465
2018-01-20T11:56:43.107Z,460
2018-01-20T11:57:43.090Z,465
2018-01-20T11:58:43.058Z,460
2018-01-20T11:59:42.796Z,460
2018-01-20T12:00:42.774Z,455
2018-01-20T12:01:42.741Z,455
2018-01-20T12:02:42.712Z,455
2018-01-20T12:03:42.937Z,455
2018-01-20T12:04:42.908Z,455
2018-01-20T12:05:42.891Z,460
2018-01-20T12:06:42.859Z,455
2018-01-20T12:07:43.197Z,455
2018-01-20T12:08:42.578Z,455
2018-01-20T12:09:42.794Z,450
2018-01-20T12:10:42.617Z,445
2018-01-20T12:11:42.735Z,445
2018-01-20T12:12:42.713Z,445
2018-01-20T12:13:42.693Z,445
2018-01-20T12:14:42.667Z,445
2018-01-20T12:15:42.894Z,445
2018-01-20T12:16:42.620Z,440
2018-01-20T12:17:42.102Z,425
2018-01-20T12:18:42.562Z,410
2018-01-20T12:19:42.291Z,400
2018-01-20T12:20:42.264Z,395
2018-01-20T12:21:42.484Z,385
2018-01-20T12:22:42.457Z,380
2018-01-20T12:23:42.436Z,370
2018-01-20T12:24:42.165Z,365
2018-01-20T12:25:42.439Z,355
2018-01-20T12:26:42.461Z,355
2018-01-20T12:27:42.341Z,350
2018-01-20T12:28:42.348Z,345
2018-01-20T12:29:42.288Z,345
2018-01-20T12:30:42.258Z,340
2018-01-20T12:31:42.309Z,335
2018-01-20T12:32:41.970Z,335
2018-01-20T12:33:43.400Z,330
2018-01-20T12:34:42.540Z,330
2018-01-20T12:35:42.644Z,330
2018-01-20T12:36:43.327Z,335
2018-01-20T12:37:42.086Z,335
2018-01-20T12:38:43.300Z,335
2018-01-20T12:39:42.031Z,335
2018-01-20T12:40:41.515Z,335
2018-01-20T12:41:41.499Z,340
2018-01-20T12:42:42.001Z,350
2018-01-20T12:43:41.688Z,360
2018-01-20T12:44:41.658Z,355
2018-01-20T12:45:41.876Z,355
2018-01-20T12:46:41.368Z,350
2018-01-20T12:47:41.333Z,350
2018-01-20T12:48:41.812Z,345
2018-01-20T12:49:41.532Z,340
2018-01-20T12:50:41.755Z,340
2018-01-20T12:51:41.480Z,335
2018-01-20T12:52:41.701Z,330
2018-01-20T12:53:41.680Z,325
2018-01-20T12:54:41.656Z,320
2018-01-20T12:55:41.385Z,310
2018-01-20T12:56:41.354Z,305
2018-01-20T12:57:41.089Z,300
2018-01-20T12:58:41.554Z,295
2018-01-20T12:59:41.318Z,290
2018-01-20T13:00:41.500Z,285
2018-01-20T13:01:40.981Z,280
2018-01-20T13:02:41.502Z,270
2018-01-20T13:03:41.428Z,265
2018-01-20T13:04:41.395Z,260
2018-01-20T13:05:41.129Z,260
2018-01-20T13:06:41.347Z,260
2018-01-20T13:07:41.082Z,260
2018-01-20T13:08:41.303Z,260
2018-01-20T13:09:41.275Z,260
2018-01-20T13:10:40.514Z,255
2018-01-20T13:11:41.219Z,250
2018-01-20T13:12:41.202Z,250
2018-01-20T13:13:41.173Z,255
2018-01-20T13:14:40.905Z,255
2018-01-20T13:15:40.873Z,260
2018-01-20T13:16:40.852Z,265
2018-01-20T13:17:41.072Z,265
2018-01-20T13:18:40.800Z,265
2018-01-20T13:19:40.775Z,260
2018-01-20T13:20:40.746Z,260
2018-01-20T13:21:40.715Z,250
2018-01-20T13:22:40.950Z,245
2018-01-20T13:23:40.917Z,245
2018-01-20T13:24:40.884Z,235
2018-01-20T13:25:40.622Z,230
2018-01-20T13:26:40.842Z,225
2018-01-20T13:27:40.563Z,220
2018-01-20T13:28:40.782Z,215
2018-01-20T13:29:40.763Z,210
2018-01-20T13:30:40.489Z,210
2018-01-20T13:31:40.227Z,205
2018-01-20T13:32:40.698Z,210
2018-01-20T13:33:40.673Z,205
2018-01-20T13:34:40.392Z,205
2018-01-20T13:35:40.616Z,205
2018-01-20T13:36:40.586Z,210
2018-01-20T13:37:40.310Z,215
2018-01-20T13:38:40.531Z,225
2018-01-20T13:39:40.569Z,230
2018-01-20T13:40:40.756Z,235
2018-01-20T13:41:40.458Z,240
2018-01-20T13:42:40.190Z,240
2018-01-20T13:43:40.739Z,245
2018-01-20T13:44:40.377Z,240
2018-01-20T13:45:39.862Z,240
2018-01-20T13:46:40.331Z,245
2018-01-20T13:47:40.295Z,245
2018-01-20T13:48:40.277Z,240
2018-01-20T13:49:40.259Z,240
2018-01-20T13:50:39.973Z,240
2018-01-20T13:51:40.247Z,240
2018-01-20T13:52:40.172Z,240
2018-01-20T13:53:40.144Z,240
2018-01-20T13:54:39.884Z,240
2018-01-20T13:55:40.103Z,235
2018-01-20T13:56:40.071Z,235
2018-01-20T13:57:40.056Z,230
2018-01-20T13:58:40.015Z,230
2018-01-20T13:59:39.747Z,225
2018-01-20T14:00:39.962Z,220
2018-01-20T14:01:39.938Z,215
2018-01-20T14:02:39.952Z,215
2018-01-20T14:03:39.883Z,205
2018-01-20T14:04:39.863Z,200
2018-01-20T14:05:39.854Z,195
2018-01-20T14:06:39.809Z,190
2018-01-20T14:07:39.782Z,185
2018-01-20T14:08:39.765Z,185
2018-01-20T14:09:39.738Z,180
2018-01-20T14:10:39.473Z,175
2018-01-20T14:11:39.680Z,175
2018-01-20T14:12:39.409Z,170
2018-01-20T14:13:39.638Z,165
2018-01-20T14:14:39.351Z,165
2018-01-20T14:15:39.577Z,160
2018-01-20T14:16:39.544Z,155